Time;durP1;ratioP1;P1;durP2;ratioP2;P2;SDS_P1;SDS_P2;PMS_P1;PMS_P2;Temp;Humidity;BMP_temperature;BMP_pressure;BME280_temperature;BME280_humidity;BME280_pressure;Samples;Min_cycle;Max_cycle;Signal;HPM_P1;HPM_P2
2023/05/31 00:01:06;;;;;;;4.13;3.90;;;17.10;99.90;;;;;;5031910;28;20206;-55
2023/05/31 00:03:33;;;;;;;4.03;3.73;;;17.00;99.90;;;;;;5024907;28;20661;-55
2023/05/31 00:06:00;;;;;;;5.20;4.27;;;16.90;99.90;;;;;;5022600;28;20576;-55
2023/05/31 00:08:27;;;;;;;5.27;4.20;;;16.90;99.90;;;;;;5020687;28;20277;-55
2023/05/31 00:10:54;;;;;;;3.70;3.50;;;16.90;99.90;;;;;;5030181;28;20198;-55
2023/05/31 00:13:21;;;;;;;4.87;4.33;;;16.90;99.90;;;;;;5031946;28;20202;-55
2023/05/31 00:15:48;;;;;;;3.73;3.40;;;16.90;99.90;;;;;;5032078;28;20203;-55
2023/05/31 00:18:17;;;;;;;5.97;4.13;;;17.00;99.90;;;;;;5012563;28;20569;-55
2023/05/31 00:20:44;;;;;;;7.33;3.73;;;16.90;99.90;;;;;;5011890;28;20202;-55
2023/05/31 00:23:11;;;;;;;5.13;4.03;;;16.90;99.90;;;;;;5011794;28;20253;-55
2023/05/31 00:25:38;;;;;;;3.83;3.43;;;16.80;99.90;;;;;;5011992;28;20206;-55
2023/05/31 00:28:05;;;;;;;4.90;4.50;;;16.70;99.90;;;;;;5018869;28;20684;-55
2023/05/31 00:30:32;;;;;;;6.17;4.27;;;16.50;99.90;;;;;;5022218;28;20584;-55
2023/05/31 00:32:59;;;;;;;4.17;3.70;;;16.50;99.90;;;;;;5021991;28;20643;-55
2023/05/31 00:35:27;;;;;;;7.60;4.90;;;16.40;99.90;;;;;;5031610;28;20206;-55
2023/05/31 00:37:54;;;;;;;4.57;4.30;;;16.40;99.90;;;;;;5015768;28;20638;-55
2023/05/31 00:40:21;;;;;;;4.40;3.90;;;16.30;99.90;;;;;;5011735;28;20261;-55
2023/05/31 00:42:48;;;;;;;4.60;3.93;;;16.20;99.90;;;;;;5011852;28;20273;-55
2023/05/31 00:45:15;;;;;;;4.93;3.47;;;16.10;99.90;;;;;;5015421;28;20202;-55
2023/05/31 00:47:42;;;;;;;4.83;3.63;;;16.00;99.90;;;;;;5023197;28;20241;-55
2023/05/31 00:50:10;;;;;;;7.73;3.83;;;15.90;99.90;;;;;;5021325;28;20788;-55
2023/05/31 00:52:38;;;;;;;4.70;4.40;;;15.90;99.90;;;;;;5027355;28;20202;-55
2023/05/31 00:55:06;;;;;;;4.00;3.67;;;15.80;99.90;;;;;;5031725;28;20198;-55
2023/05/31 00:57:33;;;;;;;4.97;4.57;;;15.80;99.90;;;;;;5028757;28;20202;-55
2023/05/31 01:00:00;;;;;;;5.37;4.97;;;15.80;99.90;;;;;;5013673;28;20237;-55
2023/05/31 01:02:27;;;;;;;5.83;4.57;;;15.70;99.90;;;;;;5011423;28;20211;-55
2023/05/31 01:04:56;;;;;;;5.40;4.83;;;15.70;99.90;;;;;;5011620;28;20261;-55
2023/05/31 01:07:23;;;;;;;9.60;4.90;;;15.70;99.90;;;;;;5011621;28;20573;-55
2023/05/31 01:09:52;;;;;;;4.77;4.47;;;15.60;99.90;;;;;;5012554;28;20677;-55
2023/05/31 01:12:26;;;;;;;5.37;4.23;;;15.50;99.90;;;;;;5012487;28;20253;-55
2023/05/31 01:15:07;;;;;;;4.70;4.30;;;15.50;99.90;;;;;;5015358;28;20230;-55
2023/05/31 01:17:40;;;;;;;5.07;4.67;;;15.50;99.90;;;;;;5014571;28;20203;-55
2023/05/31 01:20:10;;;;;;;5.00;4.50;;;15.40;99.90;;;;;;5013732;28;20199;-55
2023/05/31 01:22:52;;;;;;;6.40;5.10;;;15.30;99.90;;;;;;5023184;28;20203;-55
2023/05/31 01:25:34;;;;;;;5.30;4.83;;;15.30;99.90;;;;;;5019537;28;20735;-55
2023/05/31 01:28:05;;;;;;;5.07;4.57;;;15.20;99.90;;;;;;5023126;28;20226;-55
2023/05/31 01:30:35;;;;;;;5.07;4.67;;;15.10;99.90;;;;;;5015379;28;20553;-55
2023/05/31 01:33:05;;;;;;;5.27;4.80;;;15.10;99.90;;;;;;5014828;28;20732;-55
2023/05/31 01:35:32;;;;;;;5.00;4.63;;;15.10;99.90;;;;;;5014332;28;20744;-55
2023/05/31 01:37:59;;;;;;;6.10;5.57;;;15.00;99.90;;;;;;5021747;28;20276;-55
2023/05/31 01:40:26;;;;;;;5.40;4.90;;;14.90;99.90;;;;;;5022214;28;20701;-55
2023/05/31 01:42:54;;;;;;;5.97;5.50;;;14.90;99.90;;;;;;5032700;28;20244;-55
2023/05/31 01:45:23;;;;;;;6.00;5.60;;;14.90;99.90;;;;;;5034592;28;20914;-55
2023/05/31 01:47:54;;;;;;;4.77;4.30;;;14.90;99.90;;;;;;5033802;28;20225;-55
2023/05/31 01:50:22;;;;;;;5.20;4.80;;;14.80;99.90;;;;;;5016420;28;20199;-55
2023/05/31 01:52:49;;;;;;;6.17;5.27;;;14.80;99.90;;;;;;5021402;28;20206;-55
2023/05/31 01:55:15;;;;;;;5.27;4.77;;;14.80;99.90;;;;;;5014661;28;20261;-55
2023/05/31 01:57:44;;;;;;;6.20;5.03;;;14.80;99.90;;;;;;5014683;28;20709;-55
2023/05/31 02:00:14;;;;;;;7.03;5.87;;;14.80;99.90;;;;;;5021972;28;20620;-55
2023/05/31 02:02:43;;;;;;;5.53;5.03;;;14.80;99.90;;;;;;5021428;28;20206;-55
2023/05/31 02:05:13;;;;;;;8.87;5.27;;;14.70;99.90;;;;;;5028033;28;20210;-55
2023/05/31 02:07:40;;;;;;;7.27;4.93;;;14.80;99.90;;;;;;5024101;28;20598;-55
2023/05/31 02:10:08;;;;;;;5.73;5.13;;;14.80;99.90;;;;;;5021528;28;20199;-55
2023/05/31 02:12:36;;;;;;;5.27;4.87;;;14.70;99.90;;;;;;5029556;28;20199;-55
2023/05/31 02:15:03;;;;;;;4.63;4.23;;;14.70;99.90;;;;;;5023482;28;20206;-55
2023/05/31 02:17:32;;;;;;;5.03;4.73;;;14.60;99.90;;;;;;5029037;28;20281;-55
2023/05/31 02:20:02;;;;;;;5.20;4.30;;;14.60;99.90;;;;;;5021945;28;20290;-55
2023/05/31 02:22:29;;;;;;;5.30;4.87;;;14.50;99.90;;;;;;5028355;28;20205;-55
2023/05/31 02:24:56;;;;;;;4.63;4.23;;;14.40;99.90;;;;;;5033911;28;20750;-55
2023/05/31 02:27:23;;;;;;;5.50;4.80;;;14.40;99.90;;;;;;5022420;28;20310;-55
2023/05/31 02:29:50;;;;;;;6.47;4.97;;;14.40;99.90;;;;;;5016535;28;20199;-55
2023/05/31 02:32:17;;;;;;;4.87;4.50;;;14.40;99.90;;;;;;5017343;28;20630;-55
2023/05/31 02:34:45;;;;;;;4.47;4.17;;;14.40;99.90;;;;;;5025610;28;20583;-55
2023/05/31 02:37:13;;;;;;;4.70;4.40;;;14.40;99.90;;;;;;5033830;28;20577;-55
2023/05/31 02:39:40;;;;;;;6.63;5.73;;;14.40;99.90;;;;;;5026555;28;20226;-55
2023/05/31 02:42:10;;;;;;;9.30;5.17;;;14.40;99.90;;;;;;5016981;28;20234;-55
2023/05/31 02:44:37;;;;;;;5.10;4.60;;;14.40;99.90;;;;;;5034000;28;20252;-55
2023/05/31 02:47:04;;;;;;;5.50;5.07;;;14.40;99.90;;;;;;5022952;28;20269;-55
2023/05/31 02:49:31;;;;;;;5.57;5.03;;;14.50;99.90;;;;;;5028418;28;20778;-55
2023/05/31 02:51:58;;;;;;;7.10;5.53;;;14.50;99.90;;;;;;5027422;28;20257;-55
2023/05/31 02:54:27;;;;;;;6.57;5.90;;;14.40;99.90;;;;;;5027380;28;20195;-55
2023/05/31 02:56:54;;;;;;;5.37;4.87;;;14.30;99.90;;;;;;5033501;28;20198;-55
2023/05/31 02:59:21;;;;;;;5.57;5.13;;;14.30;99.90;;;;;;5031016;28;20229;-55
2023/05/31 03:01:47;;;;;;;6.07;5.57;;;14.20;99.90;;;;;;5024964;28;20202;-55
2023/05/31 03:04:15;;;;;;;7.50;5.50;;;14.30;99.90;;;;;;5027081;28;20256;-55
2023/05/31 03:06:42;;;;;;;5.93;4.67;;;14.20;99.90;;;;;;5024866;28;20195;-55
2023/05/31 03:09:13;;;;;;;5.87;5.27;;;14.10;99.90;;;;;;5033182;28;20288;-55
2023/05/31 03:11:42;;;;;;;5.87;5.30;;;14.10;99.90;;;;;;5033239;28;20241;-55
2023/05/31 03:14:09;;;;;;;5.37;4.87;;;14.00;99.90;;;;;;5023785;28;20219;-55
2023/05/31 03:16:36;;;;;;;5.67;5.07;;;14.00;99.90;;;;;;5025282;28;20206;-55
2023/05/31 03:19:02;;;;;;;7.53;5.60;;;14.00;99.90;;;;;;5024467;28;20260;-55
2023/05/31 03:21:30;;;;;;;6.37;5.87;;;13.90;99.90;;;;;;5033264;28;20199;-55
2023/05/31 03:23:57;;;;;;;5.80;5.40;;;13.90;99.90;;;;;;5032550;28;20681;-55
2023/05/31 03:26:24;;;;;;;5.53;5.13;;;13.90;99.90;;;;;;5026963;28;20628;-55
2023/05/31 03:28:52;;;;;;;6.63;6.10;;;13.80;99.90;;;;;;5041421;23;20273;-57
2023/05/31 03:31:19;;;;;;;6.87;6.27;;;13.90;99.90;;;;;;4981286;28;20205;-56
2023/05/31 03:33:46;;;;;;;7.87;6.37;;;13.80;99.90;;;;;;4972494;28;20689;-56
2023/05/31 03:36:13;;;;;;;5.97;5.47;;;13.80;99.90;;;;;;4973650;28;20204;-56
2023/05/31 03:38:40;;;;;;;6.03;5.53;;;13.80;99.90;;;;;;4973426;28;20204;-56
2023/05/31 03:41:07;;;;;;;7.03;6.37;;;13.90;99.90;;;;;;4960431;28;20252;-56
2023/05/31 03:43:34;;;;;;;5.67;5.17;;;13.90;99.90;;;;;;4960303;28;20236;-56
2023/05/31 03:46:03;;;;;;;7.20;6.37;;;13.80;99.90;;;;;;4955144;28;20202;-56
2023/05/31 03:48:29;;;;;;;6.67;6.07;;;13.80;99.90;;;;;;4953989;28;20288;-56
2023/05/31 03:50:57;;;;;;;6.77;6.23;;;13.80;99.90;;;;;;4953905;28;20225;-56
2023/05/31 03:53:25;;;;;;;5.70;5.17;;;13.70;99.90;;;;;;4952881;28;20209;-56
2023/05/31 03:55:52;;;;;;;6.57;6.03;;;13.80;99.90;;;;;;4960358;28;20205;-55
2023/05/31 03:58:20;;;;;;;8.07;5.23;;;13.90;99.90;;;;;;4958897;28;20248;-56
2023/05/31 04:00:47;;;;;;;9.37;5.83;;;14.00;99.90;;;;;;4965197;28;20220;-56
2023/05/31 04:03:15;;;;;;;7.03;6.17;;;14.10;99.90;;;;;;4954815;28;20204;-56
2023/05/31 04:05:42;;;;;;;6.30;5.70;;;14.10;99.90;;;;;;4953799;29;20205;-56
2023/05/31 04:08:09;;;;;;;6.03;5.53;;;14.10;99.90;;;;;;4961282;28;20252;-56
2023/05/31 04:10:36;;;;;;;6.00;5.47;;;14.10;99.90;;;;;;4965204;28;20287;-56
2023/05/31 04:13:05;;;;;;;5.60;4.93;;;14.10;99.90;;;;;;4959644;28;20197;-56
2023/05/31 04:15:32;;;;;;;6.30;5.80;;;14.00;99.90;;;;;;4961627;28;20201;-56
2023/05/31 04:17:59;;;;;;;6.17;5.60;;;14.10;99.90;;;;;;4953644;29;20241;-56
2023/05/31 04:20:27;;;;;;;7.33;5.30;;;14.20;99.90;;;;;;4959049;28;20216;-56
2023/05/31 04:22:54;;;;;;;6.43;5.93;;;14.30;99.90;;;;;;4955234;28;20197;-56
2023/05/31 04:25:21;;;;;;;6.93;6.33;;;14.30;99.90;;;;;;4957789;28;20197;-56
2023/05/31 04:27:49;;;;;;;7.33;6.63;;;14.50;99.90;;;;;;4964738;28;20216;-56
2023/05/31 04:30:16;;;;;;;7.27;6.53;;;14.50;99.90;;;;;;4972708;28;20267;-56
2023/05/31 04:32:44;;;;;;;8.37;7.43;;;14.50;99.90;;;;;;4954236;28;20209;-56
2023/05/31 04:35:11;;;;;;;13.30;6.60;;;14.50;99.90;;;;;;4952663;28;20227;-56
2023/05/31 04:37:39;;;;;;;7.87;7.13;;;14.60;99.90;;;;;;4960510;28;20544;-56
2023/05/31 04:40:09;;;;;;;6.47;5.87;;;14.60;99.90;;;;;;4963373;28;20223;-56
2023/05/31 04:42:36;;;;;;;7.47;6.83;;;14.70;99.90;;;;;;4972341;28;20220;-56
2023/05/31 04:45:04;;;;;;;8.80;8.00;;;14.80;99.90;;;;;;4962573;28;20208;-56
2023/05/31 04:47:31;;;;;;;7.17;6.50;;;14.80;99.90;;;;;;4964702;28;20610;-56
2023/05/31 04:49:59;;;;;;;21.33;8.67;;;14.90;99.90;;;;;;4975462;28;20224;-56
2023/05/31 04:52:28;;;;;;;7.73;7.07;;;15.10;99.90;;;;;;4970415;28;20209;-56
2023/05/31 04:54:57;;;;;;;9.03;8.17;;;15.20;99.90;;;;;;4956687;29;20933;-55
2023/05/31 04:57:26;;;;;;;9.00;8.20;;;15.30;99.90;;;;;;4944082;28;20285;-56
2023/05/31 04:59:53;;;;;;;7.67;7.17;;;15.40;99.90;;;;;;4943290;28;20225;-56
2023/05/31 05:02:21;;;;;;;7.47;6.47;;;15.60;99.90;;;;;;4953747;28;20200;-56
2023/05/31 05:04:48;;;;;;;9.90;8.33;;;15.80;99.90;;;;;;4956849;28;20201;-56
2023/05/31 05:07:16;;;;;;;8.23;7.67;;;16.10;99.90;;;;;;4956493;28;20213;-56
2023/05/31 05:09:43;;;;;;;10.07;9.03;;;16.30;99.90;;;;;;4956160;28;20316;-56
2023/05/31 05:12:12;;;;;;;12.10;7.90;;;16.80;99.90;;;;;;4971965;28;20662;-56
2023/05/31 05:14:39;;;;;;;8.10;7.10;;;17.30;99.90;;;;;;4953336;28;20283;-56
2023/05/31 05:17:06;;;;;;;7.87;7.07;;;18.30;99.90;;;;;;4958780;28;20201;-56
2023/05/31 05:19:34;;;;;;;6.57;5.97;;;19.30;99.90;;;;;;4960708;28;20209;-56
2023/05/31 05:22:01;;;;;;;8.13;7.43;;;20.30;99.90;;;;;;4955415;28;20201;-56
2023/05/31 05:24:28;;;;;;;7.20;6.23;;;20.80;99.90;;;;;;4957243;28;20228;-56
2023/05/31 05:26:55;;;;;;;5.83;4.97;;;21.30;99.90;;;;;;4965151;28;20213;-56
2023/05/31 05:29:23;;;;;;;5.90;5.37;;;21.90;99.90;;;;;;4960921;28;20634;-56
2023/05/31 05:31:50;;;;;;;5.97;4.70;;;22.60;99.90;;;;;;4960991;28;20252;-56
2023/05/31 05:34:18;;;;;;;7.50;5.43;;;23.20;99.90;;;;;;4956112;29;20201;-56
2023/05/31 05:36:45;;;;;;;6.17;5.23;;;23.70;99.90;;;;;;4960509;28;20590;-56
2023/05/31 05:39:12;;;;;;;6.07;5.57;;;24.10;99.90;;;;;;4962435;28;20737;-57
2023/05/31 05:41:39;;;;;;;5.70;5.20;;;24.30;99.90;;;;;;4959498;28;20208;-56
2023/05/31 05:44:06;;;;;;;5.53;4.73;;;24.60;99.90;;;;;;4958814;28;20197;-56
2023/05/31 05:46:34;;;;;;;5.43;5.07;;;25.00;99.90;;;;;;4959613;28;20209;-56
2023/05/31 05:49:02;;;;;;;5.60;5.10;;;24.70;99.90;;;;;;4955939;28;20225;-56
2023/05/31 05:51:29;;;;;;;4.70;4.40;;;25.00;99.90;;;;;;4961393;28;20205;-56
2023/05/31 05:53:55;;;;;;;4.17;3.87;;;25.50;99.90;;;;;;4958055;28;20644;-56
2023/05/31 05:56:22;;;;;;;5.13;4.83;;;25.90;99.90;;;;;;4957705;28;20228;-56
2023/05/31 05:58:50;;;;;;;5.07;4.67;;;25.50;99.90;;;;;;4943298;28;20201;-56
2023/05/31 06:01:18;;;;;;;4.53;4.13;;;25.60;99.90;;;;;;4952769;28;20658;-57
2023/05/31 06:03:47;;;;;;;4.03;3.70;;;25.70;99.60;;;;;;4961706;28;20324;-57
2023/05/31 06:06:14;;;;;;;4.50;3.90;;;26.20;99.00;;;;;;4954375;28;20202;-57
2023/05/31 06:08:41;;;;;;;4.40;4.00;;;26.50;98.60;;;;;;4953869;28;20263;-57
2023/05/31 06:11:08;;;;;;;5.40;4.13;;;26.70;99.60;;;;;;4954214;28;20578;-57
2023/05/31 06:13:35;;;;;;;5.23;4.60;;;25.60;99.50;;;;;;4953554;28;20205;-56
2023/05/31 06:16:04;;;;;;;5.07;4.60;;;26.30;97.90;;;;;;4962695;28;20260;-56
2023/05/31 06:18:31;;;;;;;4.47;4.17;;;26.50;99.30;;;;;;4960335;28;20201;-57
2023/05/31 06:20:59;;;;;;;6.53;5.43;;;26.40;99.10;;;;;;4954814;29;20272;-57
2023/05/31 06:23:26;;;;;;;5.50;5.10;;;25.30;99.20;;;;;;4959904;28;20204;-57
2023/05/31 06:25:53;;;;;;;4.57;4.13;;;24.80;99.90;;;;;;4966579;28;20197;-56
2023/05/31 06:28:20;;;;;;;5.80;4.73;;;25.30;99.70;;;;;;4974685;28;20260;-56
2023/05/31 06:30:47;;;;;;;4.93;4.43;;;25.50;99.90;;;;;;4974193;28;20804;-56
2023/05/31 06:33:14;;;;;;;5.00;4.60;;;26.10;98.60;;;;;;4958087;28;20622;-56
2023/05/31 06:35:42;;;;;;;5.77;5.30;;;26.60;98.50;;;;;;4954618;28;20239;-56
2023/05/31 06:38:15;;;;;;;6.50;4.27;;;26.60;98.20;;;;;;4955146;28;20205;-57
2023/05/31 06:40:42;;;;;;;6.63;4.67;;;26.40;99.30;;;;;;4955401;28;20236;-57
2023/05/31 06:43:10;;;;;;;5.33;4.50;;;26.90;98.10;;;;;;4955108;29;20209;-57
2023/05/31 06:45:41;;;;;;;6.27;5.20;;;27.00;97.10;;;;;;4954308;29;20268;-61
2023/05/31 06:48:08;;;;;;;6.87;5.23;;;26.60;96.70;;;;;;4954727;29;20295;-60
2023/05/31 06:50:35;;;;;;;5.87;4.97;;;26.50;96.80;;;;;;4961148;28;20252;-61
2023/05/31 06:53:02;;;;;;;4.93;4.10;;;27.00;97.20;;;;;;4965599;28;20204;-61
2023/05/31 06:55:30;;;;;;;6.67;5.60;;;27.90;95.60;;;;;;4973988;28;20255;-61
2023/05/31 06:57:57;;;;;;;6.33;5.73;;;28.30;95.40;;;;;;4973898;28;20208;-62
2023/05/31 07:00:24;;;;;;;5.43;4.85;;;28.20;95.50;;;;;;4973753;28;20224;-62
2023/05/31 07:02:51;;;;;;;6.97;4.67;;;27.20;94.90;;;;;;4972244;28;20208;-62
2023/05/31 07:05:19;;;;;;;4.60;4.30;;;27.60;95.50;;;;;;4962461;28;20201;-61
2023/05/31 07:07:46;;;;;;;5.10;4.80;;;27.90;96.00;;;;;;4969401;28;20271;-61
2023/05/31 07:10:13;;;;;;;5.77;5.33;;;27.90;95.20;;;;;;4954216;28;20233;-62
2023/05/31 07:12:41;;;;;;;5.10;4.70;;;27.90;95.40;;;;;;4954069;28;20209;-62
2023/05/31 07:15:09;;;;;;;4.20;3.90;;;27.70;95.30;;;;;;4954274;28;20560;-61
2023/05/31 07:17:36;;;;;;;10.00;6.10;;;28.70;94.70;;;;;;4961000;28;20291;-61
2023/05/31 07:20:05;;;;;;;8.38;4.63;;;28.80;95.00;;;;;;4951136;28;20219;-61
2023/05/31 07:22:32;;;;;;;6.55;5.78;;;28.90;93.70;;;;;;4959528;28;20205;-62
2023/05/31 07:24:59;;;;;;;5.57;5.22;;;27.70;93.80;;;;;;4962133;28;20200;-61
2023/05/31 07:27:26;;;;;;;5.20;4.72;;;28.00;93.10;;;;;;4950096;28;20271;-61
2023/05/31 07:29:54;;;;;;;5.65;5.05;;;28.30;93.70;;;;;;4958478;28;20225;-61
2023/05/31 07:32:21;;;;;;;5.63;4.70;;;28.20;95.00;;;;;;4952072;28;20201;-60
2023/05/31 07:34:48;;;;;;;5.37;5.00;;;27.40;96.50;;;;;;4960313;28;20204;-59
2023/05/31 07:37:15;;;;;;;5.30;4.90;;;27.10;97.30;;;;;;4956796;28;20666;-60
2023/05/31 07:39:44;;;;;;;8.40;6.13;;;27.00;97.30;;;;;;4953975;28;20291;-60
2023/05/31 07:42:13;;;;;;;6.03;5.53;;;26.90;97.40;;;;;;4956569;28;20204;-62
2023/05/31 07:44:41;;;;;;;7.57;5.90;;;26.40;96.60;;;;;;4960914;28;20819;-61
2023/05/31 07:47:11;;;;;;;5.20;4.83;;;26.20;98.70;;;;;;4955452;28;20600;-63
2023/05/31 07:49:38;;;;;;;5.03;4.73;;;27.00;98.40;;;;;;4951345;28;20284;-61
2023/05/31 07:52:05;;;;;;;5.37;4.87;;;27.00;96.60;;;;;;4956283;28;20212;-62
2023/05/31 07:54:32;;;;;;;7.00;5.60;;;26.70;96.70;;;;;;4966909;28;20643;-62
2023/05/31 07:56:59;;;;;;;5.70;5.30;;;27.20;96.10;;;;;;4960974;28;20255;-60
2023/05/31 07:59:26;;;;;;;5.80;5.47;;;26.50;96.60;;;;;;4967321;28;20212;-62
2023/05/31 08:01:53;;;;;;;6.10;5.57;;;26.70;97.80;;;;;;4960506;28;20217;-61
2023/05/31 08:04:22;;;;;;;5.20;4.83;;;26.40;97.10;;;;;;4952048;28;20205;-60
2023/05/31 08:06:49;;;;;;;5.63;5.13;;;25.70;97.50;;;;;;4951915;28;20583;-61
2023/05/31 08:09:16;;;;;;;4.80;4.50;;;26.60;97.40;;;;;;4963870;28;20307;-60
2023/05/31 08:11:43;;;;;;;5.50;4.90;;;26.50;96.10;;;;;;4954411;28;20201;-61
2023/05/31 08:14:10;;;;;;;6.23;4.47;;;27.00;96.50;;;;;;4972329;28;20670;-61
2023/05/31 08:16:39;;;;;;;5.00;4.70;;;27.80;96.50;;;;;;4955894;28;20216;-61
2023/05/31 08:19:06;;;;;;;7.03;4.73;;;27.80;96.30;;;;;;4971923;28;20224;-61
2023/05/31 08:21:36;;;;;;;5.20;4.90;;;27.70;95.30;;;;;;4972719;28;20212;-61
2023/05/31 08:24:03;;;;;;;4.80;4.40;;;28.60;93.50;;;;;;4963597;28;20293;-60
2023/05/31 08:26:30;;;;;;;4.90;4.50;;;28.70;93.90;;;;;;4953346;29;20882;-61
2023/05/31 08:28:57;;;;;;;6.35;5.50;;;29.10;92.80;;;;;;4954354;28;20758;-61
2023/05/31 08:31:24;;;;;;;6.30;5.40;;;29.90;93.40;;;;;;4964346;28;20200;-62
2023/05/31 08:33:55;;;;;;;5.63;5.15;;;29.50;94.00;;;;;;4959356;28;20630;-62
2023/05/31 08:36:22;;;;;;;5.82;5.32;;;29.60;94.10;;;;;;4959534;28;20659;-63
2023/05/31 08:38:50;;;;;;;4.50;4.20;;;29.50;93.40;;;;;;4953163;28;20209;-62
2023/05/31 08:41:19;;;;;;;6.60;5.45;;;29.90;92.40;;;;;;4953041;29;20213;-63
2023/05/31 08:43:47;;;;;;;4.55;4.15;;;29.60;93.60;;;;;;4953677;28;20691;-62
2023/05/31 08:46:16;;;;;;;4.93;3.90;;;28.90;92.40;;;;;;4961189;28;20232;-61
2023/05/31 08:48:46;;;;;;;5.30;4.80;;;29.10;93.40;;;;;;4968710;28;20251;-61
2023/05/31 08:51:14;;;;;;;5.13;4.70;;;28.40;93.60;;;;;;4960045;28;20691;-62
2023/05/31 08:53:42;;;;;;;5.35;4.25;;;28.60;94.50;;;;;;4952544;29;20205;-61
2023/05/31 08:56:11;;;;;;;5.15;4.85;;;29.00;94.10;;;;;;4952243;28;20260;-60
2023/05/31 08:58:39;;;;;;;5.40;4.20;;;29.30;92.20;;;;;;4960750;28;20251;-60
2023/05/31 09:01:07;;;;;;;7.85;5.32;;;29.30;93.40;;;;;;4958789;28;20221;-60
2023/05/31 09:03:34;;;;;;;5.40;4.82;;;29.30;93.50;;;;;;4952826;28;20205;-56
2023/05/31 09:06:01;;;;;;;4.85;4.53;;;29.10;94.00;;;;;;4952166;28;20304;-56
2023/05/31 09:08:33;;;;;;;8.73;5.07;;;29.70;91.00;;;;;;4951198;28;20357;-56
2023/05/31 09:11:00;;;;;;;4.93;4.53;;;29.50;92.70;;;;;;4960110;28;20650;-56
2023/05/31 09:13:29;;;;;;;4.88;4.38;;;29.70;92.40;;;;;;4966639;28;20212;-56
2023/05/31 09:15:58;;;;;;;4.38;4.10;;;29.50;91.90;;;;;;4972045;28;20292;-56
2023/05/31 09:18:29;;;;;;;13.68;5.50;;;29.70;91.20;;;;;;4972082;28;20631;-56
2023/05/31 09:20:57;;;;;;;7.55;4.97;;;29.90;92.50;;;;;;4972000;28;20220;-56
2023/05/31 09:23:24;;;;;;;16.23;6.43;;;29.90;92.80;;;;;;4966827;28;20209;-56
2023/05/31 09:25:53;;;;;;;9.32;4.88;;;29.90;92.30;;;;;;4960778;28;20622;-55
2023/05/31 09:28:22;;;;;;;4.60;4.25;;;29.00;92.10;;;;;;4952700;29;20831;-56
2023/05/31 09:31:04;;;;;;;5.53;5.03;;;29.00;92.40;;;;;;4954290;28;20653;-56
2023/05/31 09:33:42;;;;;;;9.07;5.85;;;28.30;92.90;;;;;;4956326;29;20209;-56
2023/05/31 09:36:09;;;;;;;114.43;14.23;;;27.90;96.30;;;;;;5013214;22;20218;-55
2023/05/31 09:38:37;;;;;;;4.50;4.10;;;28.50;93.60;;;;;;4997694;28;20680;-56
2023/05/31 09:41:15;;;;;;;26.67;7.03;;;28.10;92.80;;;;;;4997862;28;20263;-56
2023/05/31 09:43:43;;;;;;;5.25;4.72;;;28.90;94.30;;;;;;5007991;28;20199;-56
2023/05/31 09:46:15;;;;;;;5.63;3.70;;;29.60;92.30;;;;;;5015070;28;20223;-55
2023/05/31 09:48:42;;;;;;;7.53;5.50;;;30.50;92.30;;;;;;5014842;28;20261;-56
2023/05/31 09:51:09;;;;;;;315.20;29.58;;;30.40;93.50;;;;;;5014576;28;20636;-56
2023/05/31 09:53:41;;;;;;;9.27;6.63;;;29.80;92.20;;;;;;4994775;28;20208;-56
2023/05/31 09:56:12;;;;;;;5.43;4.93;;;29.60;92.10;;;;;;5003214;28;20215;-56
2023/05/31 09:58:40;;;;;;;4.55;4.03;;;29.60;90.80;;;;;;4988054;28;20662;-56
2023/05/31 10:01:07;;;;;;;4.82;4.43;;;30.60;91.90;;;;;;4975751;28;20258;-56
2023/05/31 10:03:36;;;;;;;8.18;4.80;;;30.60;92.10;;;;;;4974872;28;20208;-56
2023/05/31 10:06:03;;;;;;;5.70;4.53;;;30.80;92.40;;;;;;4975313;28;20271;-56
2023/05/31 10:08:32;;;;;;;5.57;4.28;;;31.30;90.50;;;;;;4975643;28;20200;-56
2023/05/31 10:11:00;;;;;;;6.32;5.45;;;31.60;89.10;;;;;;4985670;28;20713;-56
2023/05/31 10:13:29;;;;;;;4.13;3.85;;;30.10;91.70;;;;;;5001211;28;20700;-56
2023/05/31 10:15:57;;;;;;;4.68;4.03;;;29.70;93.20;;;;;;4996210;28;20235;-56
2023/05/31 10:18:29;;;;;;;8.30;4.43;;;29.50;92.50;;;;;;4994660;28;20841;-56
2023/05/31 10:21:01;;;;;;;4.57;4.38;;;29.80;92.00;;;;;;4994930;28;20208;-56
2023/05/31 10:23:29;;;;;;;5.32;4.85;;;30.10;92.50;;;;;;4994597;28;20295;-56
2023/05/31 10:26:06;;;;;;;4.90;4.60;;;29.50;91.60;;;;;;4993994;28;20225;-56
2023/05/31 10:28:38;;;;;;;4.25;3.75;;;29.30;92.20;;;;;;4999431;28;20683;-55
2023/05/31 10:31:05;;;;;;;3.80;3.50;;;29.60;90.90;;;;;;4994680;28;20314;-56
2023/05/31 10:33:32;;;;;;;5.05;4.05;;;30.30;90.70;;;;;;4980311;28;20212;-56
2023/05/31 10:36:01;;;;;;;4.63;4.10;;;30.10;90.80;;;;;;4974765;28;20228;-56
2023/05/31 10:38:35;;;;;;;10.82;4.82;;;29.10;91.50;;;;;;4974899;28;20295;-55
2023/05/31 10:41:06;;;;;;;5.55;4.70;;;28.50;93.50;;;;;;4974891;28;20663;-56
2023/05/31 10:43:40;;;;;;;8.85;4.63;;;28.60;92.00;;;;;;4991516;28;20199;-56
2023/05/31 10:46:10;;;;;;;4.68;4.38;;;28.80;93.50;;;;;;4995481;28;20631;-56
2023/05/31 10:48:46;;;;;;;4.75;4.20;;;29.20;93.90;;;;;;4998410;28;20252;-56
2023/05/31 10:51:17;;;;;;;4.63;4.03;;;29.20;92.10;;;;;;4994068;28;20238;-56
2023/05/31 10:53:46;;;;;;;4.00;3.67;;;28.70;92.80;;;;;;4992520;28;20204;-60
2023/05/31 10:56:14;;;;;;;3.72;3.47;;;28.40;93.40;;;;;;4994041;28;20234;-61
2023/05/31 10:58:42;;;;;;;4.85;4.55;;;28.40;93.30;;;;;;4990201;28;20203;-61
2023/05/31 11:01:13;;;;;;;5.70;4.30;;;28.30;93.60;;;;;;4990241;28;20196;-62
2023/05/31 11:03:46;;;;;;;4.32;4.03;;;28.40;93.40;;;;;;5006227;28;20209;-63
2023/05/31 11:06:17;;;;;;;4.90;4.53;;;28.20;94.20;;;;;;5005699;28;20275;-61
2023/05/31 11:08:59;;;;;;;4.82;3.63;;;28.30;93.20;;;;;;4992705;28;20217;-57
2023/05/31 11:11:30;;;;;;;5.60;3.83;;;28.40;92.80;;;;;;4986963;28;20270;-56
2023/05/31 11:13:59;;;;;;;5.15;4.78;;;28.30;91.60;;;;;;4975523;28;20236;-65
2023/05/31 11:16:27;;;;;;;4.13;3.92;;;28.20;94.60;;;;;;4995982;28;20224;-64
2023/05/31 11:19:14;;;;;;;4.03;3.67;;;27.60;93.50;;;;;;5011210;28;20207;-65
2023/05/31 11:21:50;;;;;;;4.53;4.20;;;27.10;93.70;;;;;;5013141;28;20207;-64
2023/05/31 11:24:28;;;;;;;4.83;4.53;;;27.10;93.80;;;;;;4988147;28;20678;-55
2023/05/31 11:26:55;;;;;;;6.57;4.17;;;26.60;94.70;;;;;;4973838;28;20283;-56
2023/05/31 11:29:22;;;;;;;3.70;3.50;;;26.90;95.20;;;;;;4985358;28;20274;-55
2023/05/31 11:31:59;;;;;;;4.50;4.07;;;26.90;93.70;;;;;;4997271;28;20203;-55
2023/05/31 11:34:28;;;;;;;4.67;4.27;;;26.70;95.80;;;;;;5006768;28;20695;-55
2023/05/31 11:37:00;;;;;;;4.60;4.07;;;26.80;94.50;;;;;;5012830;28;20210;-55
2023/05/31 11:39:27;;;;;;;4.47;3.43;;;26.70;94.80;;;;;;5005050;28;20662;-59
2023/05/31 11:41:55;;;;;;;4.93;3.77;;;26.60;93.40;;;;;;4988356;28;20210;-59
2023/05/31 11:44:28;;;;;;;4.83;4.50;;;26.70;93.80;;;;;;5012460;28;20231;-59
2023/05/31 11:47:02;;;;;;;4.53;4.13;;;26.50;94.40;;;;;;4995036;28;20200;-59
2023/05/31 11:49:30;;;;;;;3.87;3.63;;;26.50;94.20;;;;;;5002584;28;20289;-58
2023/05/31 11:51:59;;;;;;;4.57;4.13;;;26.70;95.10;;;;;;5004457;28;20195;-58
2023/05/31 11:54:30;;;;;;;5.10;3.93;;;26.70;93.00;;;;;;5011702;28;20203;-60
2023/05/31 11:57:06;;;;;;;4.90;4.37;;;26.70;93.00;;;;;;4996531;28;20282;-60
2023/05/31 11:59:33;;;;;;;5.27;4.53;;;26.80;94.70;;;;;;4973777;28;20228;-60
2023/05/31 12:02:01;;;;;;;3.97;3.77;;;26.50;93.80;;;;;;4973138;28;20233;-60
2023/05/31 12:04:33;;;;;;;4.57;4.27;;;26.30;94.80;;;;;;4987774;28;20507;-59
2023/05/31 12:07:01;;;;;;;8.87;3.93;;;26.40;94.90;;;;;;5002324;28;20246;-65
2023/05/31 12:09:29;;;;;;;7.83;4.17;;;26.50;94.70;;;;;;4998647;28;20736;-63
2023/05/31 12:11:56;;;;;;;3.67;3.37;;;26.40;94.30;;;;;;5002227;28;20215;-62
2023/05/31 12:14:24;;;;;;;4.57;3.70;;;26.40;94.20;;;;;;5004342;28;20203;-65
2023/05/31 12:16:52;;;;;;;6.93;3.67;;;26.40;94.30;;;;;;5004112;28;20199;-57
2023/05/31 12:19:19;;;;;;;4.27;3.93;;;26.60;93.90;;;;;;5004838;28;20210;-57
2023/05/31 12:21:46;;;;;;;74.93;12.27;;;26.70;95.10;;;;;;5002947;28;20195;-57
2023/05/31 12:24:16;;;;;;;29.57;7.93;;;26.80;95.00;;;;;;5001912;28;20230;-57
2023/05/31 12:26:44;;;;;;;4.60;3.37;;;26.80;94.00;;;;;;5003646;28;20270;-57
2023/05/31 12:29:12;;;;;;;4.80;4.20;;;26.70;94.20;;;;;;5012234;28;20294;-57
2023/05/31 12:31:40;;;;;;;16.23;5.67;;;26.40;92.50;;;;;;5012139;28;20219;-57
2023/05/31 12:34:08;;;;;;;187.63;22.63;;;26.50;95.00;;;;;;5004156;28;20199;-57
2023/05/31 12:36:39;;;;;;;25.57;6.23;;;26.60;94.30;;;;;;4991026;28;20231;-57
2023/05/31 12:39:11;;;;;;;6.63;3.90;;;26.50;94.40;;;;;;5011735;28;20329;-57
2023/05/31 12:41:42;;;;;;;5.57;3.87;;;26.50;93.90;;;;;;5012200;28;20265;-57
2023/05/31 12:44:08;;;;;;;10.13;3.97;;;26.50;95.30;;;;;;5003729;28;20253;-58
2023/05/31 12:46:39;;;;;;;5.50;4.30;;;26.30;93.20;;;;;;5003831;28;20215;-57
2023/05/31 12:49:21;;;;;;;4.57;4.07;;;26.20;92.90;;;;;;5011877;28;20203;-57
2023/05/31 12:51:48;;;;;;;7.97;4.20;;;26.20;92.80;;;;;;4990249;28;20223;-57